createdAt,value
2023-03-29T00:01:52.277Z,29.00
2023-03-29T00:04:20.324Z,29.00
2023-03-29T00:06:48.304Z,21.00
2023-03-29T00:09:16.522Z,27.50
2023-03-29T00:11:44.776Z,32.00
2023-03-29T00:14:13.500Z,25.50
2023-03-29T00:16:41.587Z,22.50
2023-03-29T00:19:09.758Z,22.50
2023-03-29T00:21:37.702Z,30.00
2023-03-29T00:26:33.623Z,25.50
2023-03-29T00:29:01.660Z,26.00
2023-03-29T00:31:30.169Z,25.00
2023-03-29T00:33:58.138Z,20.50
2023-03-29T00:36:26.740Z,25.00
2023-03-29T00:38:56.928Z,24.50
2023-03-29T00:41:26.310Z,24.00
2023-03-29T00:44:04.035Z,19.00
2023-03-29T00:46:35.110Z,16.00
2023-03-29T00:51:38.536Z,24.00
2023-03-29T00:54:15.081Z,27.00
2023-03-29T00:56:47.052Z,14.00
2023-03-29T00:59:27.731Z,24.00
2023-03-29T01:02:03.078Z,20.00
2023-03-29T01:05:00.514Z,25.00
2023-03-29T01:07:53.877Z,18.50
2023-03-29T01:10:33.009Z,16.00
2023-03-29T01:13:07.320Z,15.00
2023-03-29T01:16:10.894Z,16.00
2023-03-29T01:18:39.892Z,18.50
2023-03-29T01:21:21.468Z,12.00
2023-03-29T01:24:29.448Z,13.50
2023-03-29T01:27:59.294Z,19.00
2023-03-29T01:30:59.798Z,22.00
2023-03-29T01:33:51.044Z,19.50
2023-03-29T01:36:29.282Z,21.00
2023-03-29T01:39:00.834Z,21.00
2023-03-29T01:41:55.539Z,18.00
2023-03-29T01:44:47.784Z,21.50
2023-03-29T01:47:33.081Z,21.50
2023-03-29T01:50:18.332Z,17.33
2023-03-29T01:52:59.710Z,17.50
2023-03-29T01:55:34.897Z,24.00
2023-03-29T01:58:08.468Z,19.00
2023-03-29T02:00:40.055Z,19.00
2023-03-29T02:03:10.587Z,20.00
2023-03-29T02:05:42.550Z,28.00
2023-03-29T02:08:14.583Z,17.00
2023-03-29T02:10:42.794Z,26.00
2023-03-29T02:13:12.549Z,26.50
2023-03-29T02:15:40.482Z,22.50
2023-03-29T02:18:08.662Z,21.50
2023-03-29T02:20:40.721Z,22.00
2023-03-29T02:23:15.611Z,27.00
2023-03-29T02:25:45.817Z,29.00
2023-03-29T02:28:14.768Z,20.00
2023-03-29T02:31:05.967Z,24.00
2023-03-29T02:33:46.130Z,23.00
2023-03-29T02:36:25.113Z,25.50
2023-03-29T02:38:54.813Z,32.00
2023-03-29T02:41:25.915Z,24.67
2023-03-29T02:43:57.254Z,8.50
2023-03-29T02:46:26.292Z,36.00
2023-03-29T02:48:55.131Z,26.00
2023-03-29T02:51:28.675Z,30.00
2023-03-29T02:54:13.900Z,22.00
2023-03-29T02:56:44.978Z,31.00
2023-03-29T02:59:14.356Z,27.00
2023-03-29T03:04:14.568Z,31.00
2023-03-29T03:06:42.540Z,34.00
2023-03-29T03:09:11.206Z,33.00
2023-03-29T03:11:41.236Z,26.00
2023-03-29T03:14:09.397Z,25.00
2023-03-29T03:16:37.519Z,34.00
2023-03-29T03:19:06.141Z,26.00
2023-03-29T03:21:35.342Z,27.00
2023-03-29T03:24:04.304Z,38.50
2023-03-29T03:26:32.820Z,34.00
2023-03-29T03:29:41.640Z,42.00
2023-03-29T03:32:12.584Z,32.00
2023-03-29T03:35:00.641Z,31.00
2023-03-29T03:37:29.099Z,29.00
2023-03-29T03:39:57.860Z,34.00
2023-03-29T03:42:29.696Z,31.00
2023-03-29T03:44:58.902Z,33.00
2023-03-29T03:47:32.831Z,32.00
2023-03-29T03:50:13.832Z,48.00
2023-03-29T03:52:41.883Z,44.00
2023-03-29T03:58:17.966Z,34.00
2023-03-29T04:00:49.301Z,35.50
2023-03-29T04:03:27.713Z,39.00
2023-03-29T04:05:55.867Z,37.00
2023-03-29T04:08:25.959Z,32.50
2023-03-29T04:11:13.956Z,33.00
2023-03-29T04:13:42.862Z,33.50
2023-03-29T04:16:30.925Z,39.50
2023-03-29T04:19:04.804Z,39.00
2023-03-29T04:50:34.858Z,79.00
2023-03-29T04:53:03.714Z,86.50
2023-03-29T04:55:31.644Z,79.50
2023-03-29T04:58:03.155Z,68.00
2023-03-29T05:00:40.269Z,48.50
2023-03-29T05:03:22.094Z,51.50
2023-03-29T05:05:55.058Z,56.50
2023-03-29T05:08:23.028Z,43.50
2023-03-29T05:11:31.869Z,49.00
2023-03-29T05:15:00.665Z,47.50
2023-03-29T05:17:28.836Z,57.00
2023-03-29T05:20:01.558Z,58.00
2023-03-29T05:24:58.538Z,64.00
2023-03-29T05:27:29.925Z,67.00
2023-03-29T05:30:05.714Z,66.00
2023-03-29T05:32:54.087Z,68.00
2023-03-29T05:35:26.427Z,61.50
2023-03-29T05:37:55.593Z,66.00
2023-03-29T05:40:26.363Z,64.00
2023-03-29T05:43:14.424Z,63.00
2023-03-29T05:45:42.562Z,57.00
2023-03-29T05:48:10.815Z,64.50
2023-03-29T05:50:41.155Z,60.00
2023-03-29T05:53:09.608Z,51.00
2023-03-29T05:55:37.882Z,51.00
2023-03-29T05:58:05.858Z,48.00
2023-03-29T06:00:37.201Z,46.50
2023-03-29T06:03:21.654Z,49.00
2023-03-29T06:05:58.748Z,35.50
2023-03-29T06:08:28.084Z,49.50
2023-03-29T06:11:40.933Z,45.50
2023-03-29T06:14:23.399Z,53.50
2023-03-29T06:16:56.732Z,40.00
2023-03-29T06:19:24.713Z,39.00
2023-03-29T06:21:53.856Z,49.00
2023-03-29T06:24:25.240Z,59.00
2023-03-29T06:26:58.416Z,50.00
2023-03-29T06:29:26.577Z,54.50
2023-03-29T06:31:56.381Z,49.50
2023-03-29T06:34:44.702Z,54.00
2023-03-29T06:37:32.633Z,73.00
2023-03-29T06:40:19.267Z,87.50
2023-03-29T06:42:48.844Z,88.50
2023-03-29T06:45:38.798Z,63.50
2023-03-29T06:48:11.421Z,52.00
2023-03-29T06:50:39.326Z,58.50
2023-03-29T06:53:11.946Z,57.50
2023-03-29T06:55:41.672Z,46.00
2023-03-29T06:58:28.905Z,40.00
2023-03-29T07:01:04.196Z,43.00
2023-03-29T07:04:00.403Z,36.00
2023-03-29T07:06:32.292Z,33.50
2023-03-29T07:09:01.865Z,36.00
2023-03-29T07:11:50.486Z,40.00
2023-03-29T07:14:31.569Z,36.50
2023-03-29T07:16:59.677Z,27.00
2023-03-29T07:19:34.202Z,35.50
2023-03-29T07:22:25.178Z,35.00
2023-03-29T07:24:57.114Z,32.00
2023-03-29T07:27:25.099Z,31.50
2023-03-29T07:29:53.170Z,32.00
2023-03-29T07:32:21.451Z,25.00
2023-03-29T07:35:09.499Z,12.50
2023-03-29T07:40:11.223Z,26.00
2023-03-29T07:42:59.673Z,17.00
2023-03-29T07:45:30.016Z,17.00
2023-03-29T07:48:03.931Z,18.00
2023-03-29T07:50:50.870Z,19.00
2023-03-29T07:53:21.804Z,16.33
2023-03-29T07:55:52.597Z,18.00
2023-03-29T07:58:55.820Z,12.00
2023-03-29T08:01:24.857Z,14.00
2023-03-29T08:04:10.072Z,13.00
2023-03-29T08:09:29.697Z,12.00
2023-03-29T08:11:59.187Z,11.00
2023-03-29T08:14:33.071Z,12.50
2023-03-29T08:17:21.408Z,15.00
2023-03-29T08:19:51.179Z,10.67
2023-03-29T08:22:25.110Z,13.00
2023-03-29T08:25:12.428Z,9.00
2023-03-29T08:27:45.085Z,13.50
2023-03-29T08:30:15.584Z,15.00
2023-03-29T08:32:43.561Z,10.33
2023-03-29T08:35:11.798Z,9.00
2023-03-29T08:37:46.988Z,12.00
2023-03-29T08:40:21.659Z,9.00
2023-03-29T08:43:14.880Z,10.50
2023-03-29T08:46:13.848Z,10.00
2023-03-29T08:48:49.427Z,10.00
2023-03-29T08:51:28.560Z,13.00
2023-03-29T08:54:08.318Z,9.00
2023-03-29T08:57:07.603Z,16.00
2023-03-29T08:59:41.720Z,20.00
2023-03-29T09:02:18.364Z,16.00
2023-03-29T09:04:50.830Z,15.00
2023-03-29T09:07:38.486Z,22.00
2023-03-29T09:10:06.791Z,13.00
2023-03-29T09:12:53.944Z,15.00
2023-03-29T09:16:00.685Z,12.00
2023-03-29T09:19:04.335Z,10.00
2023-03-29T09:21:50.868Z,10.00
2023-03-29T09:24:42.825Z,32.50
2023-03-29T09:27:33.452Z,24.00
2023-03-29T09:30:19.442Z,20.00
2023-03-29T09:33:13.810Z,11.50
2023-03-29T09:36:18.577Z,7.00
2023-03-29T09:38:51.265Z,25.50
2023-03-29T09:41:30.505Z,33.00
2023-03-29T09:44:12.734Z,29.50
2023-03-29T09:47:02.124Z,8.00
2023-03-29T09:49:47.353Z,14.00
2023-03-29T09:52:17.683Z,10.00
2023-03-29T09:54:52.598Z,17.00
2023-03-29T09:57:38.414Z,11.50
2023-03-29T10:00:10.885Z,7.00
2023-03-29T10:02:42.174Z,9.50
2023-03-29T10:05:16.807Z,8.67
2023-03-29T10:07:49.263Z,10.00
2023-03-29T10:10:29.293Z,8.50
2023-03-29T10:13:01.057Z,9.00
2023-03-29T10:15:30.855Z,6.00
2023-03-29T10:18:07.055Z,6.00
2023-03-29T10:20:37.797Z,15.00
2023-03-29T10:23:08.423Z,10.50
2023-03-29T10:25:42.933Z,5.00
2023-03-29T10:28:18.648Z,6.00
2023-03-29T10:30:54.555Z,7.00
2023-03-29T10:33:24.864Z,5.50
2023-03-29T10:35:57.738Z,9.00
2023-03-29T10:38:28.710Z,7.00
2023-03-29T10:41:10.446Z,8.00
2023-03-29T10:43:43.316Z,8.00
2023-03-29T10:46:19.650Z,8.50
2023-03-29T10:49:06.359Z,7.00
2023-03-29T10:51:34.704Z,9.00
2023-03-29T10:54:04.397Z,9.00
2023-03-29T10:56:58.926Z,8.00
2023-03-29T10:59:29.595Z,10.00
2023-03-29T11:02:00.525Z,5.00
2023-03-29T11:07:17.445Z,12.00
2023-03-29T11:10:31.323Z,7.50
2023-03-29T11:13:12.065Z,9.00
2023-03-29T11:15:58.795Z,7.50
2023-03-29T11:18:55.413Z,9.00
2023-03-29T11:21:45.883Z,5.50
2023-03-29T11:24:19.990Z,16.00
2023-03-29T11:27:42.138Z,13.00
2023-03-29T11:30:43.075Z,10.00
2023-03-29T11:33:20.435Z,8.50
2023-03-29T11:36:04.250Z,5.00
2023-03-29T11:39:00.373Z,8.00
2023-03-29T11:41:34.119Z,10.00
2023-03-29T11:44:15.018Z,8.50
2023-03-29T11:46:54.679Z,8.00
2023-03-29T11:49:44.834Z,8.00
2023-03-29T11:52:22.698Z,6.00
2023-03-29T11:55:05.516Z,4.00
2023-03-29T11:57:38.643Z,12.00
2023-03-29T12:00:25.398Z,11.00
2023-03-29T12:03:22.136Z,14.50
2023-03-29T12:05:57.737Z,9.67
2023-03-29T12:08:46.565Z,7.00
2023-03-29T12:11:25.504Z,10.00
2023-03-29T12:14:02.665Z,10.00
2023-03-29T12:16:42.009Z,12.00
2023-03-29T12:19:25.951Z,10.00
2023-03-29T12:21:57.329Z,9.00
2023-03-29T12:24:30.372Z,8.00
2023-03-29T12:27:29.528Z,9.00
2023-03-29T12:30:15.870Z,11.00
2023-03-29T12:32:43.722Z,9.00
2023-03-29T12:36:06.073Z,8.00
2023-03-29T12:38:53.392Z,9.00
2023-03-29T12:41:24.962Z,9.00
2023-03-29T12:44:04.918Z,11.50
2023-03-29T12:47:00.006Z,11.00
2023-03-29T12:49:35.430Z,9.00
2023-03-29T12:52:28.387Z,8.00
2023-03-29T12:54:59.714Z,11.00
2023-03-29T12:57:45.271Z,11.00
2023-03-29T13:00:19.117Z,14.00
2023-03-29T13:03:04.255Z,9.50
2023-03-29T13:05:36.913Z,11.00
2023-03-29T13:08:42.403Z,9.50
2023-03-29T13:11:37.723Z,8.00
2023-03-29T13:14:17.086Z,10.00
2023-03-29T13:16:45.166Z,9.50
2023-03-29T13:19:36.134Z,8.67
2023-03-29T13:22:43.701Z,10.00
2023-03-29T13:25:41.870Z,11.50
2023-03-29T13:28:24.607Z,8.00
2023-03-29T13:31:06.573Z,11.00
2023-03-29T13:34:09.588Z,7.00
2023-03-29T13:37:13.235Z,10.00
2023-03-29T13:39:50.845Z,13.00
2023-03-29T13:42:32.895Z,7.00
2023-03-29T13:45:26.429Z,8.00
2023-03-29T13:48:28.858Z,7.00
2023-03-29T13:51:08.218Z,10.00
2023-03-29T13:53:46.242Z,11.00
2023-03-29T13:56:26.488Z,14.50
2023-03-29T13:59:21.422Z,15.00
2023-03-29T14:02:00.728Z,22.50
2023-03-29T14:04:38.033Z,15.50
2023-03-29T14:07:08.522Z,17.00
2023-03-29T14:09:44.261Z,9.50
2023-03-29T14:12:15.237Z,11.50
2023-03-29T14:14:58.373Z,6.00
2023-03-29T14:17:27.969Z,6.00
2023-03-29T14:19:58.981Z,6.67
2023-03-29T14:22:33.103Z,6.00
2023-03-29T14:25:06.570Z,9.00
2023-03-29T14:27:37.351Z,7.00
2023-03-29T14:30:20.386Z,8.00
2023-03-29T14:32:50.541Z,6.00
2023-03-29T14:35:19.057Z,5.00
2023-03-29T14:37:49.052Z,15.00
2023-03-29T14:40:20.152Z,11.00
2023-03-29T14:42:49.191Z,9.00
2023-03-29T14:45:18.817Z,8.00
2023-03-29T14:47:47.704Z,8.00
2023-03-29T14:50:27.178Z,13.00
2023-03-29T14:52:58.051Z,17.00
2023-03-29T14:55:27.638Z,13.50
2023-03-29T14:57:56.746Z,7.00
2023-03-29T15:00:39.887Z,7.00
2023-03-29T15:03:15.398Z,7.00
2023-03-29T15:06:02.861Z,7.00
2023-03-29T15:08:50.836Z,10.50
2023-03-29T15:11:28.099Z,11.00
2023-03-29T15:14:15.101Z,11.00
2023-03-29T15:16:45.777Z,13.00
2023-03-29T15:19:18.240Z,9.00
2023-03-29T15:21:49.196Z,16.50
2023-03-29T15:24:32.240Z,11.50
2023-03-29T15:27:03.682Z,11.00
2023-03-29T15:29:42.978Z,13.00
2023-03-29T15:32:23.901Z,8.00
2023-03-29T15:34:59.391Z,7.00
2023-03-29T15:37:28.413Z,10.00
2023-03-29T15:39:57.968Z,12.00
2023-03-29T15:42:26.242Z,12.00
2023-03-29T15:47:23.135Z,13.00
2023-03-29T15:49:51.344Z,18.00
2023-03-29T15:52:19.197Z,15.00
2023-03-29T15:54:47.041Z,11.00
2023-03-29T15:57:16.306Z,9.00
2023-03-29T15:59:44.859Z,14.00
2023-03-29T16:02:16.520Z,8.00
2023-03-29T16:04:44.726Z,8.50
2023-03-29T16:07:15.206Z,9.00
2023-03-29T16:09:44.234Z,11.00
2023-03-29T16:12:13.375Z,10.33
2023-03-29T16:14:43.040Z,14.00
2023-03-29T16:17:11.658Z,16.50
2023-03-29T16:19:39.563Z,15.00
2023-03-29T16:22:07.724Z,20.00
2023-03-29T16:24:36.392Z,29.00
2023-03-29T16:27:04.882Z,24.00
2023-03-29T16:29:32.863Z,21.00
2023-03-29T16:32:01.236Z,14.00
2023-03-29T16:34:30.109Z,8.00
2023-03-29T16:36:58.057Z,9.00
2023-03-29T16:39:26.133Z,8.00
2023-03-29T16:41:54.022Z,9.00
2023-03-29T16:44:23.963Z,8.50
2023-03-29T16:46:58.210Z,9.50
2023-03-29T16:49:26.370Z,7.50
2023-03-29T16:51:54.287Z,12.00
2023-03-29T16:54:25.778Z,15.00
2023-03-29T16:56:53.987Z,14.00
2023-03-29T16:59:22.375Z,15.00
2023-03-29T17:01:50.334Z,17.50
2023-03-29T17:04:18.484Z,16.50
2023-03-29T17:06:46.468Z,31.00
2023-03-29T17:09:14.383Z,23.50
2023-03-29T17:11:42.303Z,25.00
2023-03-29T17:14:10.481Z,22.00
2023-03-29T17:16:38.519Z,17.00
2023-03-29T17:19:06.656Z,21.00
2023-03-29T17:21:34.584Z,18.00
2023-03-29T17:24:02.566Z,20.00
2023-03-29T17:26:31.035Z,19.00
2023-03-29T17:28:59.003Z,24.50
2023-03-29T17:31:27.214Z,34.00
2023-03-29T17:33:55.351Z,39.00
2023-03-29T17:36:25.501Z,64.00
2023-03-29T17:38:54.821Z,37.50
2023-03-29T17:41:23.106Z,34.00
2023-03-29T17:43:51.133Z,18.00
2023-03-29T17:46:22.876Z,20.00
2023-03-29T17:48:51.559Z,22.50
2023-03-29T17:51:20.578Z,30.00
2023-03-29T17:53:49.025Z,27.00
2023-03-29T17:56:16.994Z,35.00
2023-03-29T17:58:45.070Z,32.00
2023-03-29T18:01:14.567Z,23.00
2023-03-29T18:03:42.957Z,25.00
2023-03-29T18:06:11.778Z,28.00
2023-03-29T18:08:41.646Z,22.00
2023-03-29T18:11:16.303Z,22.00
2023-03-29T18:13:44.972Z,19.00
2023-03-29T18:16:13.011Z,25.00
2023-03-29T18:18:41.634Z,39.00
2023-03-29T18:21:10.989Z,35.00
2023-03-29T18:23:41.071Z,35.00
2023-03-29T18:26:09.736Z,25.50
2023-03-29T18:28:38.260Z,24.00
2023-03-29T18:31:06.779Z,21.00
2023-03-29T18:33:37.958Z,23.00
2023-03-29T18:36:10.888Z,23.00
2023-03-29T18:38:43.326Z,32.00
2023-03-29T18:41:13.994Z,37.00
2023-03-29T18:43:43.267Z,38.00
2023-03-29T18:46:11.335Z,33.00
2023-03-29T18:48:39.387Z,34.00
2023-03-29T18:51:11.597Z,24.00
2023-03-29T18:53:42.065Z,28.00
2023-03-29T18:56:10.356Z,27.50
2023-03-29T18:58:38.290Z,28.00
2023-03-29T19:01:07.348Z,26.00
2023-03-29T19:03:35.699Z,26.00
2023-03-29T19:06:04.118Z,18.00
2023-03-29T19:08:34.371Z,21.00
2023-03-29T19:11:04.780Z,20.00
2023-03-29T19:13:33.251Z,24.00
2023-03-29T19:16:01.760Z,19.00
2023-03-29T19:18:30.136Z,25.00
2023-03-29T19:20:58.490Z,47.00
2023-03-29T19:23:28.537Z,44.00
2023-03-29T19:26:00.135Z,59.00
2023-03-29T19:28:28.695Z,42.00
2023-03-29T19:30:58.861Z,40.50
2023-03-29T19:33:26.939Z,58.00
2023-03-29T19:35:55.049Z,59.00
2023-03-29T19:38:23.045Z,54.00
2023-03-29T19:40:52.086Z,49.00
2023-03-29T19:43:20.874Z,49.50
2023-03-29T19:45:50.632Z,34.00
2023-03-29T19:48:23.667Z,41.00
2023-03-29T19:50:52.794Z,57.50
2023-03-29T19:53:21.335Z,69.50
2023-03-29T19:55:49.620Z,66.00
2023-03-29T19:58:17.597Z,60.50
2023-03-29T20:00:46.710Z,55.00
2023-03-29T20:03:15.813Z,35.00
2023-03-29T20:05:43.894Z,39.50
2023-03-29T20:08:11.830Z,35.00
2023-03-29T20:10:39.727Z,28.50
2023-03-29T20:13:07.744Z,31.00
2023-03-29T20:15:35.991Z,26.00
2023-03-29T20:20:31.969Z,30.00
2023-03-29T20:23:05.205Z,29.00
2023-03-29T20:25:35.729Z,40.00
2023-03-29T20:28:04.818Z,52.00
2023-03-29T20:30:32.848Z,67.50
2023-03-29T20:33:01.065Z,85.50
2023-03-29T20:35:29.172Z,65.00
2023-03-29T20:38:04.659Z,82.50
2023-03-29T20:40:34.513Z,50.50
2023-03-29T20:43:03.009Z,57.67
2023-03-29T20:45:35.133Z,32.00
2023-03-29T20:48:11.919Z,39.33
2023-03-29T20:50:40.871Z,40.00
2023-03-29T20:53:08.837Z,34.00
2023-03-29T20:55:39.598Z,31.00
2023-03-29T20:58:08.001Z,73.00
2023-03-29T21:00:37.687Z,71.00
2023-03-29T21:03:07.150Z,65.00
2023-03-29T21:05:35.180Z,59.00
2023-03-29T21:08:04.460Z,49.00
2023-03-29T21:10:32.839Z,55.00
2023-03-29T21:13:02.810Z,49.00
2023-03-29T21:15:32.128Z,62.00
2023-03-29T21:18:00.325Z,62.00
2023-03-29T21:20:28.299Z,61.00
2023-03-29T21:23:16.461Z,67.50
2023-03-29T21:25:44.387Z,58.00
2023-03-29T21:28:13.399Z,65.00
2023-03-29T21:30:41.570Z,60.50
2023-03-29T21:33:09.582Z,56.50
2023-03-29T21:35:37.533Z,58.00
2023-03-29T21:38:05.682Z,60.00
2023-03-29T21:40:36.925Z,59.00
2023-03-29T21:43:04.940Z,48.50
2023-03-29T21:45:32.889Z,38.00
2023-03-29T21:48:00.954Z,46.00
2023-03-29T21:50:31.989Z,37.50
2023-03-29T21:53:02.272Z,37.50
2023-03-29T21:55:30.275Z,34.00
2023-03-29T21:57:58.104Z,29.00
2023-03-29T22:00:26.487Z,30.00
2023-03-29T22:02:54.438Z,29.00
2023-03-29T22:05:22.692Z,22.00
2023-03-29T22:07:50.606Z,36.00
2023-03-29T22:10:22.971Z,30.00
2023-03-29T22:12:51.878Z,11.00
2023-03-29T22:15:22.018Z,22.00
2023-03-29T22:17:50.651Z,23.00
2023-03-29T22:20:18.851Z,24.67
2023-03-29T22:22:51.798Z,20.50
2023-03-29T22:25:20.888Z,28.00
2023-03-29T22:27:49.449Z,22.50
2023-03-29T22:30:17.978Z,26.00
2023-03-29T22:32:45.975Z,27.00
2023-03-29T22:35:13.881Z,27.00
2023-03-29T22:37:43.616Z,22.00
2023-03-29T22:40:13.272Z,22.50
2023-03-29T22:42:41.337Z,22.50
2023-03-29T22:45:09.842Z,18.00
2023-03-29T22:47:37.838Z,21.00
2023-03-29T22:50:06.416Z,19.50
2023-03-29T22:52:34.519Z,20.00
2023-03-29T22:55:02.584Z,23.00
2023-03-29T22:57:30.679Z,20.50
2023-03-29T22:59:58.520Z,17.00
2023-03-29T23:02:26.421Z,25.00
2023-03-29T23:04:54.359Z,18.00
2023-03-29T23:07:22.298Z,17.00
2023-03-29T23:09:50.731Z,17.00
2023-03-29T23:12:18.634Z,14.00
2023-03-29T23:14:47.077Z,13.00
2023-03-29T23:17:19.394Z,16.00
2023-03-29T23:19:48.167Z,13.00
2023-03-29T23:22:16.028Z,11.00
2023-03-29T23:24:47.429Z,11.00
2023-03-29T23:27:15.606Z,12.00
2023-03-29T23:29:45.319Z,9.00
2023-03-29T23:32:14.418Z,11.00
2023-03-29T23:34:42.472Z,7.00
2023-03-29T23:37:10.432Z,12.50
2023-03-29T23:39:38.224Z,9.00
2023-03-29T23:42:06.165Z,12.50
2023-03-29T23:44:33.976Z,11.50
2023-03-29T23:47:01.909Z,14.00
2023-03-29T23:49:30.169Z,12.00
2023-03-29T23:52:00.285Z,11.00
2023-03-29T23:54:29.203Z,8.00
2023-03-29T23:56:57.111Z,13.67
2023-03-29T23:59:30.029Z,11.00
